Wichita Mid-Continent, KS

7:21 PM CDT on August 29, 2014 (GMT -0500)
Wichita Mid-Continent | Change Station
CLOSE
Current Station
Airport
Location: Wichita,
Elevation: 1332 ft
Nearby Weather Stations

Elev 1332 ft 37.65 °N, 97.43 °W | Updated 32 minutes ago

Heavy Thunderstorms and Rain
Heavy Thunderstorm Rain
75 °F
Feels Like 75 °F
N
12
Wind Variable Wind from South

Today
High -- | Low -- °F
--% Chance of Precip.
Yesterday
High -- | Low -- °F
Precip. -- in
6:57 AM 8:03 PM
Waxing Crescent, 17% visible
Pressure 29.85 in
Visibility 1.8 miles
Clouds Scattered Clouds 5000 ft
Scattered Clouds 7000 ft
Mostly Cloudy 10000 ft
Mostly Cloudy 15000 ft
Dew Point 70 °F
Humidity 83%
Rainfall 0.00 in
Snow Depth Not available.
UV 0 out of 12
Pollen 9.20 out of 12
Air Quality Not available.
Flu Activity Not available.
SPECI KICT 292349Z 19010KT 1 3/4SM R01L/4000V6000FT +TSRA SCT050CB SCT070 BKN100 BKN150 24/21 A2985 RMK AO2 WSHFT 2310 RAB17 TSB37 OCNL LTGIC OHD AND W-NW TS OHD AND W-NW MOVG E P0004 $

More Conditions Fewer Conditions

Pressure 29.85 in
Visibility 1.8 miles
Clouds Scattered Clouds 5000 ft
Scattered Clouds 7000 ft
Mostly Cloudy 10000 ft
Mostly Cloudy 15000 ft
Dew Point 70 °F
Humidity 83%
Rainfall 0.00 in
Snow Depth Not available.
UV 0 out of 12
Pollen 9.20 out of 12
Air Quality Not available.
Flu Activity Not available.
SPECI KICT 292349Z 19010KT 1 3/4SM R01L/4000V6000FT +TSRA SCT050CB SCT070 BKN100 BKN150 24/21 A2985 RMK AO2 WSHFT 2310 RAB17 TSB37 OCNL LTGIC OHD AND W-NW TS OHD AND W-NW MOVG E P0004 $

More Conditions Fewer Conditions

10-Day Weather Forecast

Almanac

Astronomy

Aug. 29, 2014 Rise Set
Actual Time 6:57 AM CDT 8:03 PM CDT
Civil Twilight 6:30 AM CDT 8:30 PM CDT
Nautical Twilight 5:58 AM CDT 9:02 PM CDT
Astronomical Twilight 5:24 AM CDT 9:35 PM CDT
Moon 10:43 AM CDT (8/29) 10:07 PM CDT (8/29)
Length of Visible Light 13h 59m
Length of Day
13h 05m
Tomorrow will be 2m 18s shorter.
Waxing Crescent, 17% of the Moon is Illuminated
Today
Waxing Crescent
Sep 2
First Quarter
Sep 8
Full
Sep 15
Last Quarter
Sep 24
New

Today's Extremes

State Highs State Lows

Community

WunderPhotos

Upload Photos

1,748,384 photos uploaded!

Nearby

Snow Depth

Station Depth Elevation
No new snow has been reported.

Earthquake Activity

City Distance Mag. Time & Date
Guthrie, Oklahoma 124 miles 3.2 10:39 AM CDT
2014-08-29
Perry, Oklahoma 99 miles 3.0 4:52 AM CDT
2014-08-29
Stillwater, Oklahoma 108 miles 3.1 10:44 AM CDT
2014-08-27
Anthony, Kansas 47 miles 2.8 10:11 AM CDT
2014-08-27
Minimum magnitude displayed is 2.5.

Coastal Water Temperatures

Place Temperature
No Stations Reporting

Nearby Weather Stations